createdAt,value
2019-03-28T00:00:31.181Z,22.13
2019-03-28T00:02:59.858Z,22.20
2019-03-28T00:05:28.769Z,22.20
2019-03-28T00:07:58.156Z,22.63
2019-03-28T00:10:26.984Z,21.13
2019-03-28T00:12:55.637Z,25.63
2019-03-28T00:15:24.245Z,24.87
2019-03-28T00:17:52.830Z,25.77
2019-03-28T00:20:21.615Z,24.43
2019-03-28T00:22:51.801Z,24.33
2019-03-28T00:25:21.319Z,22.80
2019-03-28T00:27:49.887Z,23.97
2019-03-28T00:30:20.129Z,24.13
2019-03-28T00:32:48.672Z,23.70
2019-03-28T00:35:17.284Z,22.77
2019-03-28T00:37:45.832Z,23.73
2019-03-28T00:40:14.442Z,21.30
2019-03-28T00:42:51.654Z,22.07
2019-03-28T00:45:20.123Z,22.60
2019-03-28T00:47:48.671Z,24.27
2019-03-28T00:50:17.381Z,23.63
2019-03-28T00:52:45.943Z,25.00
2019-03-28T00:55:14.561Z,25.67
2019-03-28T00:57:43.131Z,23.43
2019-03-28T01:00:12.644Z,21.37
2019-03-28T01:02:41.347Z,21.83
2019-03-28T01:05:10.463Z,23.33
2019-03-28T01:07:38.952Z,22.33
2019-03-28T01:10:08.066Z,21.60
2019-03-28T01:12:36.674Z,22.90
2019-03-28T01:15:07.591Z,23.50
2019-03-28T01:17:36.196Z,24.13
2019-03-28T01:20:06.786Z,24.67
2019-03-28T01:22:35.324Z,21.17
2019-03-28T01:25:04.142Z,21.90
2019-03-28T01:27:32.793Z,20.80
2019-03-28T01:30:01.403Z,20.33
2019-03-28T01:32:30.034Z,20.00
2019-03-28T01:34:58.696Z,20.30
2019-03-28T01:37:27.317Z,19.83
2019-03-28T01:39:55.858Z,18.97
2019-03-28T01:42:24.504Z,19.67
2019-03-28T01:44:53.187Z,19.87
2019-03-28T01:47:21.879Z,20.67
2019-03-28T01:49:50.515Z,20.00
2019-03-28T01:52:19.190Z,21.27
2019-03-28T01:54:47.799Z,19.83
2019-03-28T01:57:16.307Z,18.70
2019-03-28T01:59:44.915Z,19.97
2019-03-28T02:02:13.634Z,19.57
2019-03-28T02:04:42.244Z,20.50
2019-03-28T02:07:12.102Z,19.73
2019-03-28T02:09:40.629Z,19.37
2019-03-28T02:12:09.252Z,20.00
2019-03-28T02:14:38.300Z,18.23
2019-03-28T02:17:07.172Z,18.50
2019-03-28T02:19:35.881Z,19.57
2019-03-28T02:22:04.471Z,21.53
2019-03-28T02:24:33.125Z,21.33
2019-03-28T02:27:01.949Z,21.07
2019-03-28T02:29:30.562Z,21.77
2019-03-28T02:31:59.224Z,24.37
2019-03-28T02:34:27.766Z,26.30
2019-03-28T02:36:56.382Z,27.37
2019-03-28T02:39:25.123Z,27.23
2019-03-28T02:41:53.796Z,24.63
2019-03-28T02:44:22.332Z,25.70
2019-03-28T02:46:50.835Z,24.53
2019-03-28T02:49:19.939Z,24.73
2019-03-28T02:51:48.730Z,23.60
2019-03-28T02:54:17.273Z,23.67
2019-03-28T02:56:45.920Z,25.10
2019-03-28T02:59:14.727Z,23.07
2019-03-28T03:01:43.435Z,24.43
2019-03-28T03:04:12.145Z,23.40
2019-03-28T03:06:40.741Z,25.03
2019-03-28T03:09:10.264Z,24.77
2019-03-28T03:11:42.549Z,24.73
2019-03-28T03:14:09.290Z,24.00
2019-03-28T03:16:37.941Z,24.73
2019-03-28T03:19:06.574Z,25.70
2019-03-28T03:21:36.102Z,23.17
2019-03-28T03:24:05.244Z,22.67
2019-03-28T03:26:33.858Z,22.93
2019-03-28T03:29:02.441Z,23.80
2019-03-28T03:31:31.082Z,24.03
2019-03-28T03:33:59.719Z,23.57
2019-03-28T03:36:28.325Z,24.33
2019-03-28T03:38:59.358Z,23.77
2019-03-28T03:41:27.282Z,23.97
2019-03-28T03:43:56.124Z,24.37
2019-03-28T03:46:24.879Z,27.80
2019-03-28T03:48:53.427Z,26.63
2019-03-28T03:51:22.128Z,26.97
2019-03-28T03:53:50.858Z,25.37
2019-03-28T03:56:19.511Z,26.77
2019-03-28T03:58:48.062Z,26.67
2019-03-28T04:01:16.708Z,26.33
2019-03-28T04:03:45.305Z,25.97
2019-03-28T04:06:14.240Z,24.13
2019-03-28T04:08:45.080Z,25.53
2019-03-28T04:11:13.246Z,27.17
2019-03-28T04:13:42.029Z,25.53
2019-03-28T04:16:10.715Z,25.87
2019-03-28T04:18:39.955Z,24.70
2019-03-28T04:21:08.963Z,24.90
2019-03-28T04:23:37.567Z,26.67
2019-03-28T04:26:06.585Z,24.60
2019-03-28T04:28:35.250Z,25.73
2019-03-28T04:31:03.946Z,24.90
2019-03-28T04:33:33.922Z,24.70
2019-03-28T04:36:02.589Z,27.23
2019-03-28T04:38:31.507Z,23.13
2019-03-28T04:41:00.401Z,25.93
2019-03-28T04:43:29.411Z,26.30
2019-03-28T04:45:57.959Z,25.40
2019-03-28T04:48:27.271Z,23.43
2019-03-28T04:50:56.272Z,23.97
2019-03-28T04:53:25.043Z,25.53
2019-03-28T04:55:53.959Z,24.67
2019-03-28T04:58:23.304Z,27.13
2019-03-28T05:00:52.664Z,28.47
2019-03-28T05:03:21.339Z,27.97
2019-03-28T05:05:49.993Z,29.13
2019-03-28T05:08:18.700Z,30.47
2019-03-28T05:10:47.486Z,32.33
2019-03-28T05:13:16.582Z,29.70
2019-03-28T05:15:45.470Z,31.50
2019-03-28T05:18:14.151Z,30.47
2019-03-28T05:20:42.950Z,30.90
2019-03-28T05:23:11.724Z,28.67
2019-03-28T05:25:40.618Z,32.17
2019-03-28T05:28:15.720Z,31.63
2019-03-28T05:30:39.924Z,32.13
2019-03-28T05:33:08.651Z,30.80
2019-03-28T05:35:37.393Z,27.40
2019-03-28T05:38:06.077Z,26.87
2019-03-28T05:40:34.864Z,29.10
2019-03-28T05:43:03.518Z,26.87
2019-03-28T05:45:32.192Z,29.33
2019-03-28T05:48:00.773Z,30.10
2019-03-28T05:50:29.441Z,28.10
2019-03-28T05:52:58.045Z,27.07
2019-03-28T05:55:26.720Z,24.67
2019-03-28T05:57:55.289Z,24.93
2019-03-28T06:00:23.916Z,22.83
2019-03-28T06:02:52.523Z,24.33
2019-03-28T06:05:21.109Z,24.47
2019-03-28T06:07:49.802Z,26.30
2019-03-28T06:10:18.728Z,23.73
2019-03-28T06:12:47.344Z,26.47
2019-03-28T06:15:16.067Z,28.63
2019-03-28T06:17:44.653Z,28.33
2019-03-28T06:20:13.295Z,34.70
2019-03-28T06:22:41.836Z,35.17
2019-03-28T06:25:10.536Z,33.07
2019-03-28T06:27:39.155Z,28.07
2019-03-28T06:30:09.376Z,27.17
2019-03-28T06:32:43.200Z,24.37
2019-03-28T06:35:08.491Z,27.37
2019-03-28T06:37:37.124Z,25.20
2019-03-28T06:40:07.267Z,23.53
2019-03-28T06:42:35.902Z,22.93
2019-03-28T06:45:06.725Z,21.73
2019-03-28T06:47:35.413Z,21.30
2019-03-28T06:50:05.590Z,20.82
2019-03-28T06:52:34.122Z,17.07
2019-03-28T06:55:02.737Z,18.92
2019-03-28T06:57:31.250Z,20.00
2019-03-28T06:59:59.815Z,18.37
2019-03-28T07:02:28.438Z,18.33
2019-03-28T07:04:56.964Z,18.87
2019-03-28T07:07:26.966Z,16.90
2019-03-28T07:09:57.077Z,16.48
2019-03-28T07:12:25.748Z,16.77
2019-03-28T07:14:55.072Z,16.27
2019-03-28T07:17:23.683Z,17.82
2019-03-28T07:19:52.305Z,17.00
2019-03-28T07:22:20.781Z,16.82
2019-03-28T07:24:49.269Z,15.40
2019-03-28T07:27:17.831Z,15.00
2019-03-28T07:29:51.182Z,17.12
2019-03-28T07:32:16.773Z,17.62
2019-03-28T07:34:45.333Z,17.97
2019-03-28T07:37:13.942Z,17.17
2019-03-28T07:39:42.681Z,15.60
2019-03-28T07:42:11.464Z,15.25
2019-03-28T07:44:40.188Z,16.20
2019-03-28T07:47:08.814Z,13.43
2019-03-28T07:49:37.785Z,14.50
2019-03-28T07:52:06.642Z,12.40
2019-03-28T07:54:35.185Z,11.57
2019-03-28T07:57:03.797Z,10.63
2019-03-28T07:59:32.327Z,10.05
2019-03-28T08:02:00.873Z,9.95
2019-03-28T08:04:29.406Z,9.68
2019-03-28T08:06:57.869Z,10.43
2019-03-28T08:09:36.122Z,9.90
2019-03-28T08:11:56.742Z,8.98
2019-03-28T08:14:25.217Z,10.28
2019-03-28T08:16:53.818Z,9.55
2019-03-28T08:19:22.426Z,9.40
2019-03-28T08:21:50.958Z,9.60
2019-03-28T08:24:19.579Z,9.25
2019-03-28T08:26:48.107Z,9.25
2019-03-28T08:29:16.700Z,9.55
2019-03-28T08:31:47.182Z,9.45
2019-03-28T08:34:15.792Z,13.70
2019-03-28T08:36:45.225Z,11.95
2019-03-28T08:39:14.730Z,11.85
2019-03-28T08:41:48.740Z,11.12
2019-03-28T08:44:16.809Z,10.05
2019-03-28T08:46:45.382Z,8.23
2019-03-28T08:49:13.992Z,7.67
2019-03-28T08:51:42.535Z,7.47
2019-03-28T08:54:11.233Z,7.37
2019-03-28T08:56:39.830Z,7.90
2019-03-28T08:59:08.430Z,7.20
2019-03-28T09:01:37.032Z,7.28
2019-03-28T09:04:05.649Z,6.67
2019-03-28T09:06:34.182Z,8.03
2019-03-28T09:09:02.818Z,8.73
2019-03-28T09:11:31.448Z,7.35
2019-03-28T09:13:59.981Z,9.25
2019-03-28T09:16:28.540Z,7.70
2019-03-28T09:18:57.103Z,7.90
2019-03-28T09:21:25.655Z,8.70
2019-03-28T09:23:54.264Z,8.10
2019-03-28T09:26:22.872Z,8.83
2019-03-28T09:28:51.430Z,7.37
2019-03-28T09:31:20.569Z,7.90
2019-03-28T09:33:49.448Z,8.20
2019-03-28T09:36:17.953Z,8.83
2019-03-28T09:38:46.440Z,8.45
2019-03-28T09:41:15.212Z,8.78
2019-03-28T09:43:54.467Z,8.30
2019-03-28T09:46:14.276Z,11.12
2019-03-28T09:48:42.805Z,8.93
2019-03-28T09:51:11.370Z,9.20
2019-03-28T09:53:39.905Z,10.43
2019-03-28T09:56:08.484Z,10.50
2019-03-28T09:58:37.017Z,10.00
2019-03-28T10:01:05.655Z,9.85
2019-03-28T10:03:34.191Z,11.70
2019-03-28T10:06:02.797Z,9.30
2019-03-28T10:08:31.376Z,9.73
2019-03-28T10:10:59.983Z,10.40
2019-03-28T10:13:28.588Z,13.53
2019-03-28T10:15:57.458Z,10.20
2019-03-28T10:18:26.276Z,9.30
2019-03-28T10:20:54.873Z,9.58
2019-03-28T10:23:24.400Z,10.15
2019-03-28T10:25:52.981Z,10.30
2019-03-28T10:28:22.289Z,12.25
2019-03-28T10:30:56.441Z,10.15
2019-03-28T10:33:24.999Z,10.13
2019-03-28T10:35:53.598Z,9.20
2019-03-28T10:38:22.162Z,9.50
2019-03-28T10:40:52.194Z,9.33
2019-03-28T10:43:20.647Z,10.35
2019-03-28T10:45:49.258Z,9.55
2019-03-28T10:48:17.883Z,11.48
2019-03-28T10:50:46.557Z,9.50
2019-03-28T10:53:15.230Z,10.13
2019-03-28T10:55:43.841Z,10.20
2019-03-28T10:58:18.827Z,9.08
2019-03-28T11:00:43.092Z,9.55
2019-03-28T11:03:11.738Z,10.53
2019-03-28T11:05:40.694Z,9.80
2019-03-28T11:08:09.592Z,10.28
2019-03-28T11:10:38.247Z,12.20
2019-03-28T11:13:09.584Z,11.15
2019-03-28T11:15:37.381Z,11.43
2019-03-28T11:18:05.996Z,10.78
2019-03-28T11:20:35.704Z,15.20
2019-03-28T11:23:04.697Z,11.22
2019-03-28T11:25:33.274Z,11.30
2019-03-28T11:28:01.817Z,11.20
2019-03-28T11:30:30.374Z,10.48
2019-03-28T11:32:58.989Z,10.63
2019-03-28T11:35:27.517Z,11.45
2019-03-28T11:37:56.049Z,11.05
2019-03-28T11:40:24.701Z,10.25
2019-03-28T11:42:53.937Z,11.20
2019-03-28T11:45:22.918Z,9.73
2019-03-28T11:47:51.501Z,9.18
2019-03-28T11:50:20.131Z,10.90
2019-03-28T11:52:48.774Z,10.78
2019-03-28T11:55:17.435Z,11.93
2019-03-28T11:57:46.038Z,11.93
2019-03-28T12:00:16.943Z,10.93
2019-03-28T12:02:45.499Z,13.38
2019-03-28T12:05:14.105Z,12.28
2019-03-28T12:07:42.638Z,11.73
2019-03-28T12:10:14.778Z,14.15
2019-03-28T12:12:43.438Z,14.63
2019-03-28T12:15:12.953Z,14.45
2019-03-28T12:17:41.577Z,12.47
2019-03-28T12:20:11.658Z,13.48
2019-03-28T12:22:40.351Z,14.68
2019-03-28T12:25:09.116Z,14.28
2019-03-28T12:27:37.763Z,13.05
2019-03-28T12:30:09.459Z,14.07
2019-03-28T12:32:38.067Z,14.20
2019-03-28T12:35:08.571Z,13.85
2019-03-28T12:37:37.216Z,15.10
2019-03-28T12:40:10.548Z,13.60
2019-03-28T12:42:39.085Z,12.10
2019-03-28T12:45:11.995Z,12.93
2019-03-28T12:47:42.642Z,14.45
2019-03-28T12:50:12.951Z,14.20
2019-03-28T12:52:41.528Z,14.90
2019-03-28T12:55:10.928Z,15.35
2019-03-28T12:57:39.541Z,15.83
2019-03-28T13:00:10.445Z,15.20
2019-03-28T13:02:39.079Z,13.75
2019-03-28T13:05:09.357Z,13.85
2019-03-28T13:07:37.987Z,13.18
2019-03-28T13:10:08.566Z,14.87
2019-03-28T13:12:37.719Z,14.30
2019-03-28T13:15:08.078Z,13.75
2019-03-28T13:17:36.631Z,13.78
2019-03-28T13:20:10.030Z,15.95
2019-03-28T13:22:38.562Z,13.85
2019-03-28T13:25:09.167Z,13.78
2019-03-28T13:27:38.243Z,14.90
2019-03-28T13:30:10.050Z,13.08
2019-03-28T13:32:42.169Z,12.43
2019-03-28T13:35:09.265Z,12.40
2019-03-28T13:37:37.871Z,14.60
2019-03-28T13:40:08.183Z,13.20
2019-03-28T13:42:38.817Z,14.23
2019-03-28T13:45:10.098Z,13.25
2019-03-28T13:47:39.004Z,12.80
2019-03-28T13:50:08.727Z,12.82
2019-03-28T13:52:37.347Z,13.88
2019-03-28T13:55:07.350Z,13.58
2019-03-28T13:57:36.022Z,12.75
2019-03-28T14:00:07.168Z,14.13
2019-03-28T14:02:36.275Z,12.80
2019-03-28T14:05:06.990Z,13.32
2019-03-28T14:07:35.598Z,13.13
2019-03-28T14:10:08.631Z,13.03
2019-03-28T14:12:37.302Z,12.25
2019-03-28T14:15:07.610Z,13.03
2019-03-28T14:17:36.339Z,13.88
2019-03-28T14:20:08.990Z,13.62
2019-03-28T14:22:37.577Z,14.43
2019-03-28T14:25:07.777Z,14.73
2019-03-28T14:27:36.415Z,14.40
2019-03-28T14:30:09.602Z,14.43
2019-03-28T14:32:52.078Z,15.10
2019-03-28T14:35:08.854Z,14.87
2019-03-28T14:37:40.651Z,15.00
2019-03-28T14:40:12.401Z,14.87
2019-03-28T14:42:41.271Z,14.87
2019-03-28T14:45:10.401Z,15.32
2019-03-28T14:47:38.939Z,16.82
2019-03-28T14:50:08.760Z,16.23
2019-03-28T14:52:37.505Z,16.40
2019-03-28T14:55:06.553Z,17.98
2019-03-28T14:57:36.102Z,16.45
2019-03-28T15:00:07.768Z,16.17
2019-03-28T15:02:36.302Z,17.52
2019-03-28T15:05:06.108Z,17.48
2019-03-28T15:07:34.695Z,20.37
2019-03-28T15:10:04.108Z,17.77
2019-03-28T15:12:32.628Z,18.77
2019-03-28T15:15:01.160Z,21.10
2019-03-28T15:17:29.930Z,20.57
2019-03-28T15:19:58.736Z,18.75
2019-03-28T15:22:27.278Z,22.95
2019-03-28T15:24:55.829Z,25.90
2019-03-28T15:27:24.455Z,25.37
2019-03-28T15:29:53.128Z,19.73
2019-03-28T15:32:21.837Z,20.43
2019-03-28T15:34:50.304Z,19.87
2019-03-28T15:37:18.770Z,19.57
2019-03-28T15:39:47.512Z,19.50
2019-03-28T15:42:16.115Z,20.43
2019-03-28T15:44:44.652Z,19.27
2019-03-28T15:47:13.186Z,21.00
2019-03-28T15:49:42.121Z,20.72
2019-03-28T15:52:10.746Z,20.95
2019-03-28T15:54:39.253Z,20.62
2019-03-28T15:57:07.895Z,20.88
2019-03-28T15:59:36.357Z,21.37
2019-03-28T16:02:06.166Z,21.12
2019-03-28T16:04:35.484Z,21.05
2019-03-28T16:07:04.089Z,21.73
2019-03-28T16:09:32.687Z,24.23
2019-03-28T16:12:02.778Z,25.08
2019-03-28T16:14:31.592Z,24.52
2019-03-28T16:17:00.199Z,24.23
2019-03-28T16:19:28.732Z,24.23
2019-03-28T16:21:57.270Z,26.00
2019-03-28T16:24:25.830Z,25.20
2019-03-28T16:26:54.874Z,31.02
2019-03-28T16:29:23.474Z,27.98
2019-03-28T16:31:52.079Z,28.90
2019-03-28T16:34:20.621Z,28.20
2019-03-28T16:36:49.158Z,26.02
2019-03-28T16:39:17.690Z,25.20
2019-03-28T16:41:46.254Z,25.95
2019-03-28T16:44:14.855Z,23.50
2019-03-28T16:46:43.390Z,27.20
2019-03-28T16:49:11.928Z,28.10
2019-03-28T16:51:43.318Z,29.67
2019-03-28T16:54:10.781Z,36.98
2019-03-28T16:56:39.393Z,44.53
2019-03-28T16:59:08.038Z,57.20
2019-03-28T17:01:36.575Z,55.60
2019-03-28T17:04:05.184Z,55.48
2019-03-28T17:06:33.860Z,64.03
2019-03-28T17:09:04.479Z,107.03
2019-03-28T17:11:33.167Z,125.12
2019-03-28T17:14:01.772Z,98.65
2019-03-28T17:16:30.321Z,113.73
2019-03-28T17:18:58.936Z,113.40
2019-03-28T17:21:27.578Z,95.75
2019-03-28T17:23:56.187Z,69.90
2019-03-28T17:26:24.835Z,50.83
2019-03-28T17:28:53.464Z,41.33
2019-03-28T17:31:24.062Z,37.98
2019-03-28T17:33:52.310Z,29.20
2019-03-28T17:36:20.844Z,33.23
2019-03-28T17:38:49.444Z,31.73
2019-03-28T17:41:18.077Z,27.97
2019-03-28T17:43:46.707Z,42.20
2019-03-28T17:46:15.325Z,54.03
2019-03-28T17:48:43.785Z,34.63
2019-03-28T17:51:12.321Z,52.00
2019-03-28T17:53:40.858Z,46.80
2019-03-28T17:56:09.395Z,39.05
2019-03-28T17:58:38.000Z,39.38
2019-03-28T18:01:07.217Z,50.83
2019-03-28T18:03:35.691Z,48.58
2019-03-28T18:06:04.646Z,49.38
2019-03-28T18:08:33.234Z,48.10
2019-03-28T18:11:01.810Z,50.83
2019-03-28T18:13:32.130Z,46.77
2019-03-28T18:16:00.820Z,44.70
2019-03-28T18:18:29.356Z,46.02
2019-03-28T18:20:57.957Z,41.42
2019-03-28T18:23:26.558Z,41.73
2019-03-28T18:25:56.826Z,41.92
2019-03-28T18:28:25.448Z,41.85
2019-03-28T18:30:54.083Z,40.90
2019-03-28T18:33:22.654Z,40.35
2019-03-28T18:35:57.019Z,39.55
2019-03-28T18:38:21.567Z,42.00
2019-03-28T18:40:50.115Z,42.70
2019-03-28T18:43:18.683Z,47.03
2019-03-28T18:45:47.293Z,42.13
2019-03-28T18:48:27.258Z,36.00
2019-03-28T18:50:46.027Z,37.43
2019-03-28T18:53:14.660Z,35.98
2019-03-28T18:55:43.287Z,38.38
2019-03-28T18:58:11.896Z,38.42
2019-03-28T19:00:40.538Z,40.23
2019-03-28T19:03:09.203Z,39.13
2019-03-28T19:05:37.769Z,41.27
2019-03-28T19:08:08.350Z,40.33
2019-03-28T19:10:37.689Z,43.90
2019-03-28T19:13:08.044Z,42.33
2019-03-28T19:15:36.682Z,49.50
2019-03-28T19:18:05.325Z,44.70
2019-03-28T19:20:35.913Z,46.77
2019-03-28T19:23:06.995Z,46.67
2019-03-28T19:25:34.813Z,46.93
2019-03-28T19:28:03.681Z,50.53
2019-03-28T19:30:34.043Z,47.00
2019-03-28T19:33:02.654Z,46.20
2019-03-28T19:35:33.180Z,46.33
2019-03-28T19:38:03.501Z,45.70
2019-03-28T19:40:32.280Z,44.23
2019-03-28T19:43:01.717Z,42.20
2019-03-28T19:45:36.146Z,41.50
2019-03-28T19:48:05.836Z,34.63
2019-03-28T19:50:34.432Z,35.00
2019-03-28T19:53:03.211Z,35.95
2019-03-28T19:55:31.752Z,40.30
2019-03-28T19:58:00.386Z,36.27
2019-03-28T20:00:29.112Z,34.77
2019-03-28T20:03:00.299Z,32.00
2019-03-28T20:05:27.890Z,30.97
2019-03-28T20:07:56.563Z,30.80
2019-03-28T20:10:25.239Z,34.73
2019-03-28T20:12:53.718Z,35.30
2019-03-28T20:15:22.330Z,35.67
2019-03-28T20:17:50.936Z,35.97
2019-03-28T20:20:20.938Z,35.83
2019-03-28T20:22:49.888Z,35.10
2019-03-28T20:25:18.492Z,31.93
2019-03-28T20:27:47.145Z,30.50
2019-03-28T20:30:15.750Z,34.97
2019-03-28T20:32:44.510Z,38.60
2019-03-28T20:35:13.613Z,35.93
2019-03-28T20:37:42.290Z,42.23
2019-03-28T20:40:12.196Z,37.30
2019-03-28T20:42:40.868Z,34.17
2019-03-28T20:45:11.143Z,34.73
2019-03-28T20:47:40.092Z,32.07
2019-03-28T20:50:09.411Z,30.90
2019-03-28T20:52:37.989Z,34.23
2019-03-28T20:55:08.033Z,32.37
2019-03-28T20:57:36.635Z,34.70
2019-03-28T21:00:08.761Z,32.83
2019-03-28T21:02:37.463Z,32.00
2019-03-28T21:05:08.624Z,32.00
2019-03-28T21:07:37.727Z,30.83
2019-03-28T21:10:07.160Z,31.33
2019-03-28T21:12:35.788Z,32.07
2019-03-28T21:15:06.710Z,29.70
2019-03-28T21:17:35.411Z,32.50
2019-03-28T21:20:06.046Z,29.90
2019-03-28T21:22:34.764Z,28.77
2019-03-28T21:25:03.545Z,29.37
2019-03-28T21:27:32.946Z,25.87
2019-03-28T21:30:01.881Z,28.23
2019-03-28T21:32:30.502Z,30.13
2019-03-28T21:34:59.145Z,26.67
2019-03-28T21:37:27.720Z,27.50
2019-03-28T21:39:56.410Z,29.00
2019-03-28T21:42:25.016Z,29.47
2019-03-28T21:44:53.623Z,30.93
2019-03-28T21:47:22.307Z,33.60
2019-03-28T21:49:50.932Z,31.33
2019-03-28T21:52:19.508Z,30.90
2019-03-28T21:54:48.232Z,29.83
2019-03-28T21:57:16.810Z,30.63
2019-03-28T21:59:45.410Z,32.00
2019-03-28T22:02:14.050Z,49.77
2019-03-28T22:04:42.524Z,44.13
2019-03-28T22:07:11.093Z,35.10
2019-03-28T22:09:40.047Z,35.20
2019-03-28T22:12:08.864Z,50.83
2019-03-28T22:14:37.409Z,57.70
2019-03-28T22:17:05.981Z,47.07
2019-03-28T22:19:34.539Z,47.13
2019-03-28T22:22:03.198Z,43.77
2019-03-28T22:24:31.868Z,46.10
2019-03-28T22:27:00.435Z,45.50
2019-03-28T22:29:29.091Z,44.43
2019-03-28T22:31:57.695Z,41.43
2019-03-28T22:34:33.278Z,40.73
2019-03-28T22:37:03.686Z,42.37
2019-03-28T22:39:32.764Z,38.50
2019-03-28T22:42:01.564Z,38.80
2019-03-28T22:44:30.058Z,38.40
2019-03-28T22:46:58.679Z,41.03
2019-03-28T22:49:27.304Z,35.17
2019-03-28T22:51:55.915Z,31.27
2019-03-28T22:54:24.378Z,29.40
2019-03-28T22:56:52.963Z,28.97
2019-03-28T22:59:23.157Z,29.17
2019-03-28T23:01:51.622Z,28.17
2019-03-28T23:04:20.304Z,31.63
2019-03-28T23:06:48.962Z,34.97
2019-03-28T23:09:17.675Z,31.90
2019-03-28T23:11:46.271Z,34.47
2019-03-28T23:14:14.902Z,32.50
2019-03-28T23:16:43.479Z,31.87
2019-03-28T23:19:12.286Z,33.27
2019-03-28T23:21:41.600Z,32.03
2019-03-28T23:24:10.477Z,34.57
2019-03-28T23:26:39.098Z,35.13
2019-03-28T23:29:07.825Z,33.13
2019-03-28T23:31:36.422Z,35.10
2019-03-28T23:34:05.072Z,32.37
2019-03-28T23:36:34.248Z,33.13
2019-03-28T23:39:03.054Z,33.80
2019-03-28T23:41:31.516Z,33.03
2019-03-28T23:44:00.180Z,31.23
2019-03-28T23:46:28.878Z,33.97
2019-03-28T23:48:57.486Z,31.47
2019-03-28T23:51:26.090Z,31.33
2019-03-28T23:53:54.679Z,29.53
2019-03-28T23:56:23.354Z,30.50
2019-03-28T23:58:51.959Z,29.17
